createdAt,value
2022-12-09T00:02:31.034Z,56.83
2022-12-09T00:07:37.558Z,69.15
2022-12-09T00:12:40.903Z,52.07
2022-12-09T00:17:44.262Z,55.28
2022-12-09T00:22:49.329Z,57.03
2022-12-09T00:27:52.805Z,58.83
2022-12-09T00:32:56.373Z,57.83
2022-12-09T00:38:01.099Z,59.10
2022-12-09T00:43:04.642Z,98.47
2022-12-09T00:48:08.283Z,70.07
2022-12-09T00:53:13.107Z,82.80
2022-12-09T00:58:16.594Z,102.18
2022-12-09T01:03:20.283Z,125.37
2022-12-09T01:08:25.214Z,131.18
2022-12-09T01:13:28.667Z,122.90
2022-12-09T01:18:32.072Z,111.78
2022-12-09T01:23:37.124Z,174.82
2022-12-09T01:28:41.611Z,174.32
2022-12-09T01:33:45.321Z,145.15
2022-12-09T01:38:50.234Z,93.38
2022-12-09T01:44:14.849Z,86.57
2022-12-09T01:49:22.219Z,98.28
2022-12-09T01:54:27.837Z,92.40
2022-12-09T01:59:32.136Z,63.08
2022-12-09T02:04:46.196Z,88.90
2022-12-09T02:10:03.234Z,125.28
2022-12-09T02:15:22.582Z,108.23
2022-12-09T02:20:32.459Z,82.13
2022-12-09T02:25:43.880Z,80.50
2022-12-09T02:30:56.568Z,120.53
2022-12-09T02:36:05.062Z,72.63
2022-12-09T02:41:14.957Z,69.22
2022-12-09T02:46:22.972Z,80.78
2022-12-09T02:51:31.075Z,66.70
2022-12-09T02:56:35.772Z,60.00
2022-12-09T03:01:47.480Z,55.60
2022-12-09T03:06:53.770Z,50.58
2022-12-09T03:12:00.708Z,57.70
2022-12-09T03:17:11.397Z,51.58
2022-12-09T03:22:17.995Z,44.83
2022-12-09T03:27:26.545Z,71.30
2022-12-09T03:32:32.077Z,52.72
2022-12-09T03:37:39.584Z,107.47
2022-12-09T03:42:47.981Z,45.95
2022-12-09T03:47:52.039Z,31.65
2022-12-09T03:53:04.453Z,44.60
2022-12-09T03:58:08.956Z,45.13
2022-12-09T04:03:15.623Z,48.67
2022-12-09T04:08:20.749Z,40.47
2022-12-09T04:13:24.268Z,37.92
2022-12-09T04:18:28.104Z,47.83
2022-12-09T04:23:35.585Z,38.33
2022-12-09T04:28:41.238Z,31.58
2022-12-09T04:33:45.800Z,38.38
2022-12-09T04:38:50.585Z,62.90
2022-12-09T04:43:54.793Z,44.58
2022-12-09T04:48:58.321Z,39.77
2022-12-09T04:54:03.142Z,40.67
2022-12-09T04:59:07.347Z,40.50
2022-12-09T05:04:11.234Z,40.53
2022-12-09T05:09:16.269Z,44.17
2022-12-09T05:14:20.339Z,52.03
2022-12-09T05:19:24.346Z,68.23
2022-12-09T05:24:29.550Z,41.63
2022-12-09T05:29:33.099Z,40.10
2022-12-09T05:34:37.333Z,38.50
2022-12-09T05:39:42.471Z,40.90
2022-12-09T05:44:46.575Z,36.55
2022-12-09T05:49:50.270Z,42.60
2022-12-09T05:54:55.384Z,41.17
2022-12-09T05:59:58.996Z,38.03
2022-12-09T06:05:03.091Z,35.90
2022-12-09T06:10:10.088Z,34.73
2022-12-09T06:15:20.277Z,29.83
2022-12-09T06:20:25.154Z,30.73
2022-12-09T06:25:30.317Z,31.27
2022-12-09T06:30:33.792Z,30.42
2022-12-09T06:35:37.959Z,29.50
2022-12-09T06:40:44.787Z,31.77
2022-12-09T06:45:48.525Z,30.70
2022-12-09T06:50:52.704Z,33.63
2022-12-09T06:55:57.928Z,30.70
2022-12-09T07:01:07.112Z,35.30
2022-12-09T07:06:20.314Z,31.88
2022-12-09T07:11:25.716Z,33.58
2022-12-09T07:16:30.117Z,31.10
2022-12-09T07:21:34.676Z,30.95
2022-12-09T07:26:40.040Z,29.77
2022-12-09T07:31:43.746Z,26.73
2022-12-09T07:36:47.437Z,32.40
2022-12-09T07:41:56.473Z,29.03
2022-12-09T07:47:04.825Z,27.80
2022-12-09T07:52:08.382Z,33.63
2022-12-09T07:57:13.152Z,35.13
2022-12-09T08:02:17.070Z,30.93
2022-12-09T08:07:20.888Z,28.80
2022-12-09T08:12:26.106Z,27.48
2022-12-09T08:17:31.006Z,28.80
2022-12-09T08:22:36.346Z,26.63
2022-12-09T08:27:41.843Z,26.55
2022-12-09T08:32:46.300Z,27.97
2022-12-09T08:37:49.697Z,23.97
2022-12-09T08:42:54.906Z,21.98
2022-12-09T08:47:58.758Z,24.95
2022-12-09T08:53:02.537Z,23.57
2022-12-09T08:58:07.271Z,22.65
2022-12-09T09:03:10.764Z,22.87
2022-12-09T09:08:15.115Z,21.87
2022-12-09T09:13:20.140Z,22.05
2022-12-09T09:18:23.608Z,20.75
2022-12-09T09:23:26.974Z,19.73
2022-12-09T09:28:32.190Z,14.87
2022-12-09T09:33:36.396Z,14.20
2022-12-09T09:38:40.391Z,13.50
2022-12-09T09:43:45.833Z,11.80
2022-12-09T09:48:49.830Z,12.32
2022-12-09T09:53:55.489Z,13.82
2022-12-09T09:59:17.034Z,11.98
2022-12-09T10:04:29.915Z,11.68
2022-12-09T10:09:39.647Z,12.83
2022-12-09T10:14:54.156Z,12.15
2022-12-09T10:20:06.287Z,12.07
2022-12-09T10:25:19.587Z,12.18
2022-12-09T10:30:27.085Z,11.85
2022-12-09T10:35:34.903Z,11.85
2022-12-09T10:40:50.480Z,14.50
2022-12-09T10:46:18.330Z,13.45
2022-12-09T10:51:25.885Z,14.35
2022-12-09T10:56:32.323Z,15.55
2022-12-09T11:01:49.710Z,15.53
2022-12-09T11:06:59.504Z,16.70
2022-12-09T11:12:07.559Z,16.87
2022-12-09T11:17:18.673Z,15.82
2022-12-09T11:27:30.293Z,13.95
2022-12-09T11:32:39.339Z,14.82
2022-12-09T11:37:42.824Z,14.15
2022-12-09T11:42:51.724Z,13.37
2022-12-09T11:53:30.841Z,12.80
2022-12-09T11:58:42.127Z,11.77
2022-12-09T12:03:52.116Z,12.20
2022-12-09T12:09:02.203Z,11.97
2022-12-09T12:14:13.937Z,12.33
2022-12-09T12:19:26.453Z,13.45
2022-12-09T12:25:00.377Z,14.27
2022-12-09T12:30:06.740Z,13.30
2022-12-09T12:35:35.058Z,15.43
2022-12-09T12:40:44.401Z,13.80
2022-12-09T12:46:17.410Z,12.67
2022-12-09T12:51:32.986Z,14.57
2022-12-09T12:56:41.509Z,14.05
2022-12-09T13:01:52.893Z,14.63
2022-12-09T13:07:06.925Z,12.18
2022-12-09T13:12:17.138Z,12.25
2022-12-09T13:17:23.239Z,12.18
2022-12-09T13:22:33.848Z,11.13
2022-12-09T13:27:42.859Z,10.87
2022-12-09T13:33:13.253Z,10.55
2022-12-09T13:38:34.197Z,11.27
2022-12-09T13:43:41.513Z,12.30
2022-12-09T13:48:48.057Z,10.07
2022-12-09T13:54:01.195Z,8.90
2022-12-09T13:59:38.017Z,10.33
2022-12-09T14:04:49.661Z,10.82
2022-12-09T14:09:57.303Z,11.27
2022-12-09T14:15:02.597Z,10.65
2022-12-09T14:20:20.375Z,12.30
2022-12-09T14:26:01.271Z,11.47
2022-12-09T14:31:09.022Z,10.68
2022-12-09T14:36:26.677Z,11.95
2022-12-09T14:41:36.044Z,13.70
2022-12-09T14:46:43.010Z,12.37
2022-12-09T14:51:49.857Z,14.07
2022-12-09T14:56:54.242Z,15.05
2022-12-09T15:02:01.142Z,16.13
2022-12-09T15:07:11.905Z,23.88
2022-12-09T15:12:15.267Z,21.77
2022-12-09T15:17:26.793Z,21.45
2022-12-09T15:22:32.541Z,16.25
2022-12-09T15:27:35.896Z,18.25
2022-12-09T15:32:41.230Z,20.42
2022-12-09T15:37:45.312Z,17.02
2022-12-09T15:42:51.036Z,16.73
2022-12-09T15:48:00.514Z,16.23
2022-12-09T15:53:06.357Z,18.50
2022-12-09T15:58:13.399Z,21.00
2022-12-09T16:03:19.822Z,22.50
2022-12-09T16:08:24.005Z,20.95
2022-12-09T16:13:27.305Z,18.83
2022-12-09T16:18:49.798Z,23.63
2022-12-09T16:23:56.123Z,21.77
2022-12-09T16:29:02.704Z,20.35
2022-12-09T16:34:07.498Z,23.02
2022-12-09T16:39:44.113Z,20.83
2022-12-09T16:44:47.551Z,21.00
2022-12-09T16:49:52.835Z,21.23
2022-12-09T16:54:56.190Z,23.92
2022-12-09T16:59:59.610Z,24.55
2022-12-09T17:05:06.140Z,23.50
2022-12-09T17:10:10.610Z,23.55
2022-12-09T17:15:16.325Z,22.50
2022-12-09T17:20:21.647Z,25.52
2022-12-09T17:25:25.035Z,22.55
2022-12-09T17:30:28.323Z,23.98
2022-12-09T17:35:34.132Z,22.90
2022-12-09T17:40:37.686Z,22.23
2022-12-09T17:45:42.446Z,23.27
2022-12-09T17:50:47.319Z,21.85
2022-12-09T17:55:50.877Z,21.83
2022-12-09T18:00:54.697Z,23.23
2022-12-09T18:06:00.503Z,22.77
2022-12-09T18:11:04.801Z,23.57
2022-12-09T18:16:10.100Z,24.40
2022-12-09T18:21:16.217Z,24.77
2022-12-09T18:26:23.455Z,22.80
2022-12-09T18:31:29.321Z,20.65
2022-12-09T18:36:34.044Z,23.80
2022-12-09T18:41:37.412Z,26.75
2022-12-09T18:46:42.466Z,23.35
2022-12-09T18:51:48.317Z,25.13
2022-12-09T18:56:53.398Z,25.53
2022-12-09T19:01:56.740Z,38.40
2022-12-09T19:07:02.425Z,23.05
2022-12-09T19:12:44.809Z,17.75
2022-12-09T19:17:32.629Z,18.98
2022-12-09T19:22:37.417Z,18.87
2022-12-09T19:32:53.252Z,17.33
2022-12-09T19:38:01.437Z,17.73
2022-12-09T19:43:05.112Z,18.02
2022-12-09T19:48:09.056Z,16.95
2022-12-09T19:53:14.837Z,19.00
2022-12-09T19:58:19.727Z,25.88
2022-12-09T20:03:23.105Z,19.87
2022-12-09T20:08:27.911Z,26.10
2022-12-09T20:13:32.179Z,21.57
2022-12-09T20:18:36.025Z,20.30
2022-12-09T20:23:44.847Z,26.08
2022-12-09T20:28:50.012Z,27.25
2022-12-09T20:33:55.486Z,28.33
2022-12-09T20:39:11.362Z,28.33
2022-12-09T20:44:16.272Z,24.50
2022-12-09T20:49:25.437Z,29.55
2022-12-09T20:54:30.372Z,27.30
2022-12-09T20:59:33.904Z,27.15
2022-12-09T21:04:37.259Z,22.33
2022-12-09T21:09:42.013Z,23.13
2022-12-09T21:14:45.983Z,23.38
2022-12-09T21:19:49.335Z,22.45
2022-12-09T21:24:54.331Z,27.63
2022-12-09T21:29:57.898Z,25.95
2022-12-09T21:35:02.226Z,28.60
2022-12-09T21:40:08.090Z,71.67
2022-12-09T21:45:11.702Z,30.37
2022-12-09T21:50:15.084Z,26.35
2022-12-09T21:55:20.343Z,26.00
2022-12-09T22:00:24.487Z,26.95
2022-12-09T22:05:28.020Z,26.07
2022-12-09T22:10:32.860Z,25.10
2022-12-09T22:15:37.671Z,25.40
2022-12-09T22:26:07.755Z,25.25
2022-12-09T22:31:11.532Z,23.20
2022-12-09T22:36:15.763Z,24.07
2022-12-09T22:41:22.429Z,22.83
2022-12-09T22:46:27.887Z,23.02
2022-12-09T22:51:33.405Z,23.15
2022-12-09T22:56:39.628Z,25.63
2022-12-09T23:01:45.508Z,27.95
2022-12-09T23:06:50.138Z,26.50
2022-12-09T23:11:55.223Z,28.70
2022-12-09T23:16:59.730Z,28.17
2022-12-09T23:22:03.544Z,25.63
2022-12-09T23:27:08.299Z,26.85
2022-12-09T23:32:11.823Z,25.15
2022-12-09T23:37:15.451Z,26.90
2022-12-09T23:42:21.597Z,27.50
2022-12-09T23:47:25.041Z,24.42
2022-12-09T23:52:28.480Z,26.65
2022-12-09T23:57:33.292Z,27.95
